sensor_id;sensor_type;location;lat;lon;timestamp;P1;durP1;ratioP1;P2;durP2;ratioP2
41141;SDS011;63666;52.284;20.890;2023-09-12T00:02:19;14.10;;;12.70;;
41141;SDS011;63666;52.284;20.890;2023-09-12T00:04:56;14.50;;;13.10;;
41141;SDS011;63666;52.284;20.890;2023-09-12T00:07:31;14.10;;;12.80;;
41141;SDS011;63666;52.284;20.890;2023-09-12T00:10:08;14.50;;;13.10;;
41141;SDS011;63666;52.284;20.890;2023-09-12T00:12:44;14.40;;;13.10;;
41141;SDS011;63666;52.284;20.890;2023-09-12T00:15:18;14.60;;;13.20;;
41141;SDS011;63666;52.284;20.890;2023-09-12T00:17:52;15.00;;;13.50;;
41141;SDS011;63666;52.284;20.890;2023-09-12T00:20:25;14.40;;;13.00;;
41141;SDS011;63666;52.284;20.890;2023-09-12T00:22:59;15.40;;;13.90;;
41141;SDS011;63666;52.284;20.890;2023-09-12T00:25:35;15.70;;;14.10;;
41141;SDS011;63666;52.284;20.890;2023-09-12T00:28:09;14.40;;;13.10;;
41141;SDS011;63666;52.284;20.890;2023-09-12T00:30:44;14.70;;;13.30;;
41141;SDS011;63666;52.284;20.890;2023-09-12T00:33:18;14.40;;;13.10;;
41141;SDS011;63666;52.284;20.890;2023-09-12T00:35:51;14.20;;;12.90;;
41141;SDS011;63666;52.284;20.890;2023-09-12T00:38:28;15.00;;;13.60;;
41141;SDS011;63666;52.284;20.890;2023-09-12T00:41:07;14.10;;;12.80;;
41141;SDS011;63666;52.284;20.890;2023-09-12T00:43:46;13.90;;;12.50;;
41141;SDS011;63666;52.284;20.890;2023-09-12T00:46:24;15.20;;;13.80;;
41141;SDS011;63666;52.284;20.890;2023-09-12T00:49:00;14.70;;;13.30;;
41141;SDS011;63666;52.284;20.890;2023-09-12T00:51:36;14.40;;;13.10;;
41141;SDS011;63666;52.284;20.890;2023-09-12T00:54:13;14.80;;;13.40;;
41141;SDS011;63666;52.284;20.890;2023-09-12T00:56:47;14.20;;;12.90;;
41141;SDS011;63666;52.284;20.890;2023-09-12T00:59:21;14.20;;;12.90;;
41141;SDS011;63666;52.284;20.890;2023-09-12T01:01:56;14.90;;;13.50;;
41141;SDS011;63666;52.284;20.890;2023-09-12T01:04:32;14.50;;;13.20;;
41141;SDS011;63666;52.284;20.890;2023-09-12T01:07:08;14.10;;;12.90;;
41141;SDS011;63666;52.284;20.890;2023-09-12T01:09:43;15.40;;;13.90;;
41141;SDS011;63666;52.284;20.890;2023-09-12T01:12:17;14.40;;;13.10;;
41141;SDS011;63666;52.284;20.890;2023-09-12T01:14:53;15.00;;;13.60;;
41141;SDS011;63666;52.284;20.890;2023-09-12T01:17:28;14.50;;;13.20;;
41141;SDS011;63666;52.284;20.890;2023-09-12T01:20:08;14.10;;;12.70;;
41141;SDS011;63666;52.284;20.890;2023-09-12T01:23:17;14.20;;;13.00;;
41141;SDS011;63666;52.284;20.890;2023-09-12T01:26:15;14.30;;;12.90;;
41141;SDS011;63666;52.284;20.890;2023-09-12T01:28:59;14.60;;;13.20;;
41141;SDS011;63666;52.284;20.890;2023-09-12T01:31:40;14.60;;;13.20;;
41141;SDS011;63666;52.284;20.890;2023-09-12T01:34:18;14.50;;;13.20;;
41141;SDS011;63666;52.284;20.890;2023-09-12T01:36:57;14.30;;;12.90;;
41141;SDS011;63666;52.284;20.890;2023-09-12T01:39:31;14.80;;;13.50;;
41141;SDS011;63666;52.284;20.890;2023-09-12T01:42:15;15.10;;;13.70;;
41141;SDS011;63666;52.284;20.890;2023-09-12T01:44:56;14.20;;;13.00;;
41141;SDS011;63666;52.284;20.890;2023-09-12T01:47:30;14.70;;;13.40;;
41141;SDS011;63666;52.284;20.890;2023-09-12T01:50:07;14.70;;;13.40;;
41141;SDS011;63666;52.284;20.890;2023-09-12T01:52:45;14.60;;;13.40;;
41141;SDS011;63666;52.284;20.890;2023-09-12T01:55:21;15.20;;;13.80;;
41141;SDS011;63666;52.284;20.890;2023-09-12T01:57:58;14.80;;;13.50;;
41141;SDS011;63666;52.284;20.890;2023-09-12T02:00:32;13.70;;;12.50;;
41141;SDS011;63666;52.284;20.890;2023-09-12T02:03:07;12.80;;;11.70;;
41141;SDS011;63666;52.284;20.890;2023-09-12T02:05:41;15.10;;;13.80;;
41141;SDS011;63666;52.284;20.890;2023-09-12T02:08:16;15.10;;;13.60;;
41141;SDS011;63666;52.284;20.890;2023-09-12T02:10:49;14.90;;;13.50;;
41141;SDS011;63666;52.284;20.890;2023-09-12T02:13:23;14.40;;;13.20;;
41141;SDS011;63666;52.284;20.890;2023-09-12T02:16:01;15.50;;;14.00;;
41141;SDS011;63666;52.284;20.890;2023-09-12T02:18:35;15.90;;;14.40;;
41141;SDS011;63666;52.284;20.890;2023-09-12T02:21:11;15.50;;;14.10;;
41141;SDS011;63666;52.284;20.890;2023-09-12T02:23:46;15.30;;;13.80;;
41141;SDS011;63666;52.284;20.890;2023-09-12T02:26:23;14.60;;;13.20;;
41141;SDS011;63666;52.284;20.890;2023-09-12T02:28:58;15.00;;;13.60;;
41141;SDS011;63666;52.284;20.890;2023-09-12T02:31:34;15.10;;;13.70;;
41141;SDS011;63666;52.284;20.890;2023-09-12T02:34:07;15.00;;;13.70;;
41141;SDS011;63666;52.284;20.890;2023-09-12T02:36:41;15.40;;;13.90;;
41141;SDS011;63666;52.284;20.890;2023-09-12T02:39:14;15.30;;;13.80;;
41141;SDS011;63666;52.284;20.890;2023-09-12T02:41:48;15.00;;;13.70;;
41141;SDS011;63666;52.284;20.890;2023-09-12T02:44:22;15.40;;;14.00;;
41141;SDS011;63666;52.284;20.890;2023-09-12T02:46:56;15.60;;;14.10;;
41141;SDS011;63666;52.284;20.890;2023-09-12T02:49:29;15.60;;;14.20;;
41141;SDS011;63666;52.284;20.890;2023-09-12T02:52:05;15.80;;;14.30;;
41141;SDS011;63666;52.284;20.890;2023-09-12T02:54:40;15.80;;;14.30;;
41141;SDS011;63666;52.284;20.890;2023-09-12T02:57:14;16.10;;;14.60;;
41141;SDS011;63666;52.284;20.890;2023-09-12T02:59:47;16.00;;;14.60;;
41141;SDS011;63666;52.284;20.890;2023-09-12T03:02:22;16.00;;;14.60;;
41141;SDS011;63666;52.284;20.890;2023-09-12T03:04:56;15.90;;;14.50;;
41141;SDS011;63666;52.284;20.890;2023-09-12T03:07:31;15.90;;;14.40;;
41141;SDS011;63666;52.284;20.890;2023-09-12T03:10:12;15.50;;;14.10;;
41141;SDS011;63666;52.284;20.890;2023-09-12T03:12:48;16.20;;;14.70;;
41141;SDS011;63666;52.284;20.890;2023-09-12T03:15:24;16.60;;;15.00;;
41141;SDS011;63666;52.284;20.890;2023-09-12T03:17:59;16.20;;;14.70;;
41141;SDS011;63666;52.284;20.890;2023-09-12T03:20:39;16.70;;;15.20;;
41141;SDS011;63666;52.284;20.890;2023-09-12T03:23:17;16.70;;;15.20;;
41141;SDS011;63666;52.284;20.890;2023-09-12T03:25:50;17.00;;;15.50;;
41141;SDS011;63666;52.284;20.890;2023-09-12T03:28:24;16.70;;;15.00;;
41141;SDS011;63666;52.284;20.890;2023-09-12T03:31:08;17.10;;;15.50;;
41141;SDS011;63666;52.284;20.890;2023-09-12T03:33:44;16.30;;;14.80;;
41141;SDS011;63666;52.284;20.890;2023-09-12T03:36:21;17.70;;;16.10;;
41141;SDS011;63666;52.284;20.890;2023-09-12T03:38:54;18.20;;;16.50;;
41141;SDS011;63666;52.284;20.890;2023-09-12T03:41:28;17.90;;;16.10;;
41141;SDS011;63666;52.284;20.890;2023-09-12T03:44:04;17.70;;;16.10;;
41141;SDS011;63666;52.284;20.890;2023-09-12T03:46:38;17.10;;;15.50;;
41141;SDS011;63666;52.284;20.890;2023-09-12T03:49:11;17.10;;;15.60;;
41141;SDS011;63666;52.284;20.890;2023-09-12T03:51:47;17.40;;;15.80;;
41141;SDS011;63666;52.284;20.890;2023-09-12T03:54:20;18.80;;;17.00;;
41141;SDS011;63666;52.284;20.890;2023-09-12T03:56:55;17.20;;;15.60;;
41141;SDS011;63666;52.284;20.890;2023-09-12T03:59:28;17.40;;;15.80;;
41141;SDS011;63666;52.284;20.890;2023-09-12T04:02:03;17.50;;;15.70;;
41141;SDS011;63666;52.284;20.890;2023-09-12T04:04:36;17.90;;;16.20;;
41141;SDS011;63666;52.284;20.890;2023-09-12T04:07:12;16.80;;;15.30;;
41141;SDS011;63666;52.284;20.890;2023-09-12T04:09:47;17.00;;;15.30;;
41141;SDS011;63666;52.284;20.890;2023-09-12T04:12:21;16.90;;;15.40;;
41141;SDS011;63666;52.284;20.890;2023-09-12T04:14:54;17.20;;;15.60;;
41141;SDS011;63666;52.284;20.890;2023-09-12T04:17:27;17.20;;;15.70;;
41141;SDS011;63666;52.284;20.890;2023-09-12T04:20:01;17.00;;;15.40;;
41141;SDS011;63666;52.284;20.890;2023-09-12T04:22:36;16.50;;;15.00;;
41141;SDS011;63666;52.284;20.890;2023-09-12T04:25:10;16.40;;;14.90;;
41141;SDS011;63666;52.284;20.890;2023-09-12T04:27:47;17.20;;;15.60;;
41141;SDS011;63666;52.284;20.890;2023-09-12T04:30:23;16.80;;;15.30;;
41141;SDS011;63666;52.284;20.890;2023-09-12T04:32:57;16.50;;;15.00;;
41141;SDS011;63666;52.284;20.890;2023-09-12T04:35:36;16.90;;;15.40;;
41141;SDS011;63666;52.284;20.890;2023-09-12T04:38:09;16.90;;;15.30;;
41141;SDS011;63666;52.284;20.890;2023-09-12T04:40:44;16.10;;;14.60;;
41141;SDS011;63666;52.284;20.890;2023-09-12T04:43:34;16.30;;;14.80;;
41141;SDS011;63666;52.284;20.890;2023-09-12T04:46:13;16.30;;;14.90;;
41141;SDS011;63666;52.284;20.890;2023-09-12T04:48:49;16.50;;;15.00;;
41141;SDS011;63666;52.284;20.890;2023-09-12T04:51:23;17.00;;;15.40;;
41141;SDS011;63666;52.284;20.890;2023-09-12T04:53:57;16.70;;;15.00;;
41141;SDS011;63666;52.284;20.890;2023-09-12T04:56:32;16.80;;;15.30;;
41141;SDS011;63666;52.284;20.890;2023-09-12T04:59:10;15.90;;;14.50;;
41141;SDS011;63666;52.284;20.890;2023-09-12T05:01:46;16.20;;;14.80;;
41141;SDS011;63666;52.284;20.890;2023-09-12T05:04:21;15.50;;;14.20;;
41141;SDS011;63666;52.284;20.890;2023-09-12T05:06:59;15.80;;;14.40;;
41141;SDS011;63666;52.284;20.890;2023-09-12T05:09:34;15.70;;;14.30;;
41141;SDS011;63666;52.284;20.890;2023-09-12T05:12:12;15.90;;;14.50;;
41141;SDS011;63666;52.284;20.890;2023-09-12T05:14:46;15.80;;;14.30;;
41141;SDS011;63666;52.284;20.890;2023-09-12T05:17:19;15.40;;;14.10;;
41141;SDS011;63666;52.284;20.890;2023-09-12T05:19:53;15.00;;;13.60;;
41141;SDS011;63666;52.284;20.890;2023-09-12T07:50:48;16.10;;;14.40;;
41141;SDS011;63666;52.284;20.890;2023-09-12T07:53:52;15.90;;;14.20;;
41141;SDS011;63666;52.284;20.890;2023-09-12T07:56:27;16.40;;;14.50;;
41141;SDS011;63666;52.284;20.890;2023-09-12T07:59:01;16.90;;;14.30;;
41141;SDS011;63666;52.284;20.890;2023-09-12T08:01:34;15.30;;;13.80;;
41141;SDS011;63666;52.284;20.890;2023-09-12T08:04:09;17.40;;;14.90;;
41141;SDS011;63666;52.284;20.890;2023-09-12T08:06:42;17.50;;;14.00;;
41141;SDS011;63666;52.284;20.890;2023-09-12T08:09:49;15.70;;;14.00;;
41141;SDS011;63666;52.284;20.890;2023-09-12T08:12:24;15.50;;;13.80;;
41141;SDS011;63666;52.284;20.890;2023-09-12T08:14:58;14.80;;;13.30;;
41141;SDS011;63666;52.284;20.890;2023-09-12T08:17:33;15.00;;;13.40;;
41141;SDS011;63666;52.284;20.890;2023-09-12T08:20:09;14.40;;;13.00;;
41141;SDS011;63666;52.284;20.890;2023-09-12T08:22:43;14.40;;;12.80;;
41141;SDS011;63666;52.284;20.890;2023-09-12T08:25:16;14.40;;;13.00;;
41141;SDS011;63666;52.284;20.890;2023-09-12T08:27:49;14.10;;;12.80;;
41141;SDS011;63666;52.284;20.890;2023-09-12T08:30:23;14.00;;;12.60;;
41141;SDS011;63666;52.284;20.890;2023-09-12T08:32:59;14.60;;;13.10;;
41141;SDS011;63666;52.284;20.890;2023-09-12T08:35:34;13.80;;;12.50;;
41141;SDS011;63666;52.284;20.890;2023-09-12T08:38:08;14.10;;;12.70;;
41141;SDS011;63666;52.284;20.890;2023-09-12T08:40:49;13.90;;;12.40;;
41141;SDS011;63666;52.284;20.890;2023-09-12T08:43:23;13.40;;;12.00;;
41141;SDS011;63666;52.284;20.890;2023-09-12T08:45:59;14.10;;;12.80;;
41141;SDS011;63666;52.284;20.890;2023-09-12T08:48:33;13.80;;;12.40;;
41141;SDS011;63666;52.284;20.890;2023-09-12T08:51:10;13.60;;;12.20;;
41141;SDS011;63666;52.284;20.890;2023-09-12T08:53:44;13.00;;;11.60;;
41141;SDS011;63666;52.284;20.890;2023-09-12T08:56:18;13.60;;;12.20;;
41141;SDS011;63666;52.284;20.890;2023-09-12T08:58:54;13.40;;;12.10;;
41141;SDS011;63666;52.284;20.890;2023-09-12T09:01:32;13.80;;;12.50;;
41141;SDS011;63666;52.284;20.890;2023-09-12T09:04:06;13.20;;;11.90;;
41141;SDS011;63666;52.284;20.890;2023-09-12T09:06:42;13.30;;;12.00;;
41141;SDS011;63666;52.284;20.890;2023-09-12T09:09:16;12.80;;;11.60;;
41141;SDS011;63666;52.284;20.890;2023-09-12T09:11:50;13.20;;;11.90;;
41141;SDS011;63666;52.284;20.890;2023-09-12T09:14:24;12.60;;;11.30;;
41141;SDS011;63666;52.284;20.890;2023-09-12T09:16:59;12.70;;;11.50;;
41141;SDS011;63666;52.284;20.890;2023-09-12T09:19:43;12.90;;;11.60;;
41141;SDS011;63666;52.284;20.890;2023-09-12T09:22:17;13.10;;;11.60;;
41141;SDS011;63666;52.284;20.890;2023-09-12T09:25:11;12.90;;;11.30;;
41141;SDS011;63666;52.284;20.890;2023-09-12T09:27:47;12.20;;;11.00;;
41141;SDS011;63666;52.284;20.890;2023-09-12T09:30:38;12.40;;;11.20;;
41141;SDS011;63666;52.284;20.890;2023-09-12T09:33:14;12.10;;;10.80;;
41141;SDS011;63666;52.284;20.890;2023-09-12T09:35:50;11.90;;;10.80;;
41141;SDS011;63666;52.284;20.890;2023-09-12T09:38:25;11.80;;;10.70;;
41141;SDS011;63666;52.284;20.890;2023-09-12T09:40:58;11.90;;;10.70;;
41141;SDS011;63666;52.284;20.890;2023-09-12T09:43:32;11.70;;;10.60;;
41141;SDS011;63666;52.284;20.890;2023-09-12T09:46:06;12.30;;;10.60;;
41141;SDS011;63666;52.284;20.890;2023-09-12T09:48:50;11.60;;;10.40;;
41141;SDS011;63666;52.284;20.890;2023-09-12T09:51:25;12.10;;;10.90;;
41141;SDS011;63666;52.284;20.890;2023-09-12T09:54:01;11.30;;;10.20;;
41141;SDS011;63666;52.284;20.890;2023-09-12T09:56:48;11.10;;;10.00;;
41141;SDS011;63666;52.284;20.890;2023-09-12T09:59:26;11.20;;;10.20;;
41141;SDS011;63666;52.284;20.890;2023-09-12T10:02:14;11.70;;;10.60;;
41141;SDS011;63666;52.284;20.890;2023-09-12T10:04:55;11.20;;;10.10;;
41141;SDS011;63666;52.284;20.890;2023-09-12T10:07:33;11.70;;;10.60;;
41141;SDS011;63666;52.284;20.890;2023-09-12T10:10:09;12.10;;;10.90;;
41141;SDS011;63666;52.284;20.890;2023-09-12T10:12:49;11.90;;;10.90;;
41141;SDS011;63666;52.284;20.890;2023-09-12T10:15:27;11.40;;;10.30;;
41141;SDS011;63666;52.284;20.890;2023-09-12T10:18:07;11.70;;;10.60;;
41141;SDS011;63666;52.284;20.890;2023-09-12T10:23:26;11.40;;;10.30;;
41141;SDS011;63666;52.284;20.890;2023-09-12T10:26:10;11.40;;;10.30;;
41141;SDS011;63666;52.284;20.890;2023-09-12T10:28:45;11.90;;;10.80;;
41141;SDS011;63666;52.284;20.890;2023-09-12T10:32:00;11.90;;;10.10;;
41141;SDS011;63666;52.284;20.890;2023-09-12T10:34:35;11.10;;;10.00;;
41141;SDS011;63666;52.284;20.890;2023-09-12T10:40:14;10.90;;;9.80;;
41141;SDS011;63666;52.284;20.890;2023-09-12T10:42:52;11.20;;;10.10;;
41141;SDS011;63666;52.284;20.890;2023-09-12T10:45:27;10.90;;;9.80;;
41141;SDS011;63666;52.284;20.890;2023-09-12T10:50:53;11.00;;;9.90;;
41141;SDS011;63666;52.284;20.890;2023-09-12T10:53:50;11.60;;;10.60;;
41141;SDS011;63666;52.284;20.890;2023-09-12T10:56:24;11.60;;;10.40;;
41141;SDS011;63666;52.284;20.890;2023-09-12T10:59:14;11.00;;;9.90;;
41141;SDS011;63666;52.284;20.890;2023-09-12T11:01:48;11.60;;;10.50;;
41141;SDS011;63666;52.284;20.890;2023-09-12T11:04:33;11.70;;;10.50;;
41141;SDS011;63666;52.284;20.890;2023-09-12T11:07:31;11.10;;;10.10;;
41141;SDS011;63666;52.284;20.890;2023-09-12T11:10:21;11.00;;;10.00;;
41141;SDS011;63666;52.284;20.890;2023-09-12T11:12:56;10.70;;;9.70;;
41141;SDS011;63666;52.284;20.890;2023-09-12T11:15:30;11.00;;;9.90;;
41141;SDS011;63666;52.284;20.890;2023-09-12T11:18:06;11.00;;;10.00;;
41141;SDS011;63666;52.284;20.890;2023-09-12T11:20:59;11.00;;;9.90;;
41141;SDS011;63666;52.284;20.890;2023-09-12T11:23:34;10.60;;;9.60;;
41141;SDS011;63666;52.284;20.890;2023-09-12T11:26:12;10.90;;;9.80;;
41141;SDS011;63666;52.284;20.890;2023-09-12T11:28:45;11.60;;;10.40;;
41141;SDS011;63666;52.284;20.890;2023-09-12T11:34:29;11.70;;;10.60;;
41141;SDS011;63666;52.284;20.890;2023-09-12T11:37:08;11.70;;;10.60;;
41141;SDS011;63666;52.284;20.890;2023-09-12T11:39:41;11.70;;;10.60;;
41141;SDS011;63666;52.284;20.890;2023-09-12T11:42:15;11.70;;;10.60;;
41141;SDS011;63666;52.284;20.890;2023-09-12T11:44:49;13.20;;;10.00;;
41141;SDS011;63666;52.284;20.890;2023-09-12T11:47:24;12.60;;;11.40;;
41141;SDS011;63666;52.284;20.890;2023-09-12T11:49:58;11.90;;;10.80;;
41141;SDS011;63666;52.284;20.890;2023-09-12T11:52:35;11.80;;;10.60;;
41141;SDS011;63666;52.284;20.890;2023-09-12T11:55:09;12.00;;;10.90;;
41141;SDS011;63666;52.284;20.890;2023-09-12T11:57:42;12.10;;;11.00;;
41141;SDS011;63666;52.284;20.890;2023-09-12T12:00:17;11.80;;;10.80;;
41141;SDS011;63666;52.284;20.890;2023-09-12T12:02:53;12.30;;;11.20;;
41141;SDS011;63666;52.284;20.890;2023-09-12T12:05:27;12.00;;;10.90;;
41141;SDS011;63666;52.284;20.890;2023-09-12T12:08:01;12.50;;;11.20;;
41141;SDS011;63666;52.284;20.890;2023-09-12T12:10:37;12.40;;;11.30;;
41141;SDS011;63666;52.284;20.890;2023-09-12T12:13:15;11.60;;;10.50;;
41141;SDS011;63666;52.284;20.890;2023-09-12T12:15:49;12.30;;;11.20;;
41141;SDS011;63666;52.284;20.890;2023-09-12T12:18:23;12.70;;;11.60;;
41141;SDS011;63666;52.284;20.890;2023-09-12T12:20:59;12.50;;;11.30;;
41141;SDS011;63666;52.284;20.890;2023-09-12T12:23:32;12.50;;;11.30;;
41141;SDS011;63666;52.284;20.890;2023-09-12T12:26:07;12.80;;;11.60;;
41141;SDS011;63666;52.284;20.890;2023-09-12T12:28:41;12.40;;;11.30;;
41141;SDS011;63666;52.284;20.890;2023-09-12T12:31:15;13.00;;;11.80;;
41141;SDS011;63666;52.284;20.890;2023-09-12T12:33:50;12.60;;;11.50;;
41141;SDS011;63666;52.284;20.890;2023-09-12T12:36:44;12.80;;;11.60;;
41141;SDS011;63666;52.284;20.890;2023-09-12T12:39:27;13.00;;;11.80;;
41141;SDS011;63666;52.284;20.890;2023-09-12T12:42:01;12.50;;;11.30;;
41141;SDS011;63666;52.284;20.890;2023-09-12T12:44:36;13.00;;;11.90;;
41141;SDS011;63666;52.284;20.890;2023-09-12T12:47:11;13.10;;;11.90;;
41141;SDS011;63666;52.284;20.890;2023-09-12T12:49:45;12.60;;;11.40;;
41141;SDS011;63666;52.284;20.890;2023-09-12T12:52:25;12.80;;;11.70;;
41141;SDS011;63666;52.284;20.890;2023-09-12T12:55:07;13.00;;;11.80;;
41141;SDS011;63666;52.284;20.890;2023-09-12T12:57:41;13.30;;;12.10;;
41141;SDS011;63666;52.284;20.890;2023-09-12T13:00:17;13.40;;;12.20;;
41141;SDS011;63666;52.284;20.890;2023-09-12T13:02:51;13.50;;;12.20;;
41141;SDS011;63666;52.284;20.890;2023-09-12T13:05:28;13.40;;;12.20;;
41141;SDS011;63666;52.284;20.890;2023-09-12T13:08:04;13.10;;;11.90;;
41141;SDS011;63666;52.284;20.890;2023-09-12T13:10:37;13.40;;;12.20;;
41141;SDS011;63666;52.284;20.890;2023-09-12T13:13:13;13.30;;;12.10;;
41141;SDS011;63666;52.284;20.890;2023-09-12T13:15:46;13.20;;;12.00;;
41141;SDS011;63666;52.284;20.890;2023-09-12T13:18:21;13.20;;;12.00;;
41141;SDS011;63666;52.284;20.890;2023-09-12T13:20:54;13.20;;;12.00;;
41141;SDS011;63666;52.284;20.890;2023-09-12T13:23:28;13.10;;;11.90;;
41141;SDS011;63666;52.284;20.890;2023-09-12T13:26:05;13.40;;;12.20;;
41141;SDS011;63666;52.284;20.890;2023-09-12T13:28:42;13.60;;;12.40;;
41141;SDS011;63666;52.284;20.890;2023-09-12T13:31:18;13.60;;;12.40;;
41141;SDS011;63666;52.284;20.890;2023-09-12T13:33:52;13.20;;;12.00;;
41141;SDS011;63666;52.284;20.890;2023-09-12T13:36:25;13.70;;;12.50;;
41141;SDS011;63666;52.284;20.890;2023-09-12T13:39:00;12.90;;;11.70;;
41141;SDS011;63666;52.284;20.890;2023-09-12T13:41:36;13.30;;;12.10;;
41141;SDS011;63666;52.284;20.890;2023-09-12T13:44:12;13.40;;;12.20;;
41141;SDS011;63666;52.284;20.890;2023-09-12T13:46:47;13.50;;;12.30;;
41141;SDS011;63666;52.284;20.890;2023-09-12T13:49:20;12.90;;;11.80;;
41141;SDS011;63666;52.284;20.890;2023-09-12T13:51:53;13.30;;;12.10;;
41141;SDS011;63666;52.284;20.890;2023-09-12T13:54:27;13.30;;;12.10;;
41141;SDS011;63666;52.284;20.890;2023-09-12T13:57:00;13.20;;;12.00;;
41141;SDS011;63666;52.284;20.890;2023-09-12T13:59:34;13.50;;;12.30;;
41141;SDS011;63666;52.284;20.890;2023-09-12T14:02:17;13.10;;;11.90;;
41141;SDS011;63666;52.284;20.890;2023-09-12T14:04:51;13.30;;;12.10;;
41141;SDS011;63666;52.284;20.890;2023-09-12T14:07:41;13.20;;;12.10;;
41141;SDS011;63666;52.284;20.890;2023-09-12T14:10:19;13.30;;;11.90;;
41141;SDS011;63666;52.284;20.890;2023-09-12T14:13:06;13.00;;;11.80;;
41141;SDS011;63666;52.284;20.890;2023-09-12T14:15:52;13.50;;;12.30;;
41141;SDS011;63666;52.284;20.890;2023-09-12T14:18:27;13.00;;;11.80;;
41141;SDS011;63666;52.284;20.890;2023-09-12T14:21:03;12.30;;;11.20;;
41141;SDS011;63666;52.284;20.890;2023-09-12T14:23:37;13.40;;;12.20;;
41141;SDS011;63666;52.284;20.890;2023-09-12T14:26:11;12.70;;;11.50;;
41141;SDS011;63666;52.284;20.890;2023-09-12T14:28:45;12.50;;;11.40;;
41141;SDS011;63666;52.284;20.890;2023-09-12T14:31:20;13.10;;;11.80;;
41141;SDS011;63666;52.284;20.890;2023-09-12T14:33:54;13.40;;;12.10;;
41141;SDS011;63666;52.284;20.890;2023-09-12T14:36:28;13.30;;;12.10;;
41141;SDS011;63666;52.284;20.890;2023-09-12T14:39:03;13.40;;;12.10;;
41141;SDS011;63666;52.284;20.890;2023-09-12T14:41:37;13.20;;;12.10;;
41141;SDS011;63666;52.284;20.890;2023-09-12T14:44:10;13.50;;;12.30;;
41141;SDS011;63666;52.284;20.890;2023-09-12T14:46:43;13.50;;;12.30;;
41141;SDS011;63666;52.284;20.890;2023-09-12T14:49:17;13.30;;;12.10;;
41141;SDS011;63666;52.284;20.890;2023-09-12T14:51:50;13.70;;;12.50;;
41141;SDS011;63666;52.284;20.890;2023-09-12T14:54:26;13.50;;;12.40;;
41141;SDS011;63666;52.284;20.890;2023-09-12T14:56:59;13.80;;;12.60;;
41141;SDS011;63666;52.284;20.890;2023-09-12T14:59:33;13.20;;;12.10;;
41141;SDS011;63666;52.284;20.890;2023-09-12T15:02:07;13.50;;;12.30;;
41141;SDS011;63666;52.284;20.890;2023-09-12T15:04:41;13.60;;;12.30;;
41141;SDS011;63666;52.284;20.890;2023-09-12T15:07:15;13.80;;;12.60;;
41141;SDS011;63666;52.284;20.890;2023-09-12T15:09:49;13.40;;;12.20;;
41141;SDS011;63666;52.284;20.890;2023-09-12T15:12:22;14.10;;;12.70;;
41141;SDS011;63666;52.284;20.890;2023-09-12T15:14:56;13.70;;;12.40;;
41141;SDS011;63666;52.284;20.890;2023-09-12T15:17:30;13.20;;;12.00;;
41141;SDS011;63666;52.284;20.890;2023-09-12T15:20:05;13.20;;;12.00;;
41141;SDS011;63666;52.284;20.890;2023-09-12T15:22:41;13.40;;;12.20;;
41141;SDS011;63666;52.284;20.890;2023-09-12T15:25:15;13.00;;;11.80;;
41141;SDS011;63666;52.284;20.890;2023-09-12T15:27:49;13.60;;;12.40;;
41141;SDS011;63666;52.284;20.890;2023-09-12T15:30:22;14.00;;;12.70;;
41141;SDS011;63666;52.284;20.890;2023-09-12T15:32:56;14.40;;;13.00;;
41141;SDS011;63666;52.284;20.890;2023-09-12T15:35:29;13.30;;;12.10;;
41141;SDS011;63666;52.284;20.890;2023-09-12T15:38:04;13.30;;;12.20;;
41141;SDS011;63666;52.284;20.890;2023-09-12T15:40:37;14.00;;;12.70;;
41141;SDS011;63666;52.284;20.890;2023-09-12T15:43:10;13.50;;;12.20;;
41141;SDS011;63666;52.284;20.890;2023-09-12T15:45:53;13.00;;;11.90;;
41141;SDS011;63666;52.284;20.890;2023-09-12T15:48:27;13.60;;;12.40;;
41141;SDS011;63666;52.284;20.890;2023-09-12T15:51:00;13.40;;;12.10;;
41141;SDS011;63666;52.284;20.890;2023-09-12T15:53:36;13.30;;;12.00;;
41141;SDS011;63666;52.284;20.890;2023-09-12T15:56:09;13.20;;;12.00;;
41141;SDS011;63666;52.284;20.890;2023-09-12T15:58:48;12.70;;;11.50;;
41141;SDS011;63666;52.284;20.890;2023-09-12T16:01:21;13.30;;;12.10;;
41141;SDS011;63666;52.284;20.890;2023-09-12T16:03:55;12.90;;;11.70;;
41141;SDS011;63666;52.284;20.890;2023-09-12T16:06:30;12.70;;;11.60;;
41141;SDS011;63666;52.284;20.890;2023-09-12T16:09:03;13.00;;;11.80;;
41141;SDS011;63666;52.284;20.890;2023-09-12T16:11:37;12.70;;;11.50;;
41141;SDS011;63666;52.284;20.890;2023-09-12T16:14:12;13.40;;;12.10;;
41141;SDS011;63666;52.284;20.890;2023-09-12T16:16:46;12.70;;;11.50;;
41141;SDS011;63666;52.284;20.890;2023-09-12T16:19:19;13.00;;;11.90;;
41141;SDS011;63666;52.284;20.890;2023-09-12T16:21:52;12.70;;;11.60;;
41141;SDS011;63666;52.284;20.890;2023-09-12T16:24:25;13.60;;;12.40;;
41141;SDS011;63666;52.284;20.890;2023-09-12T16:27:00;13.20;;;12.10;;
41141;SDS011;63666;52.284;20.890;2023-09-12T16:29:34;13.20;;;12.10;;
41141;SDS011;63666;52.284;20.890;2023-09-12T16:32:09;13.70;;;12.40;;
41141;SDS011;63666;52.284;20.890;2023-09-12T16:34:42;13.70;;;12.40;;
41141;SDS011;63666;52.284;20.890;2023-09-12T16:37:17;13.70;;;12.50;;
41141;SDS011;63666;52.284;20.890;2023-09-12T16:39:50;13.70;;;12.50;;
41141;SDS011;63666;52.284;20.890;2023-09-12T16:42:24;13.80;;;12.60;;
41141;SDS011;63666;52.284;20.890;2023-09-12T16:44:58;14.10;;;12.80;;
41141;SDS011;63666;52.284;20.890;2023-09-12T16:47:33;14.00;;;12.80;;
41141;SDS011;63666;52.284;20.890;2023-09-12T16:50:08;14.50;;;13.30;;
41141;SDS011;63666;52.284;20.890;2023-09-12T16:52:42;13.90;;;12.60;;
41141;SDS011;63666;52.284;20.890;2023-09-12T16:55:15;14.30;;;13.00;;
41141;SDS011;63666;52.284;20.890;2023-09-12T16:57:49;14.20;;;13.00;;
41141;SDS011;63666;52.284;20.890;2023-09-12T17:00:23;14.50;;;13.20;;
41141;SDS011;63666;52.284;20.890;2023-09-12T17:02:56;14.30;;;13.10;;
41141;SDS011;63666;52.284;20.890;2023-09-12T17:05:30;14.50;;;13.30;;
41141;SDS011;63666;52.284;20.890;2023-09-12T17:08:05;14.20;;;13.00;;
41141;SDS011;63666;52.284;20.890;2023-09-12T17:10:39;13.80;;;12.70;;
41141;SDS011;63666;52.284;20.890;2023-09-12T17:13:12;14.10;;;12.90;;
41141;SDS011;63666;52.284;20.890;2023-09-12T17:15:48;14.50;;;13.20;;
41141;SDS011;63666;52.284;20.890;2023-09-12T17:18:22;15.50;;;14.10;;
41141;SDS011;63666;52.284;20.890;2023-09-12T17:20:57;14.80;;;13.50;;
41141;SDS011;63666;52.284;20.890;2023-09-12T17:23:34;15.10;;;13.80;;
41141;SDS011;63666;52.284;20.890;2023-09-12T17:26:08;15.50;;;14.20;;
41141;SDS011;63666;52.284;20.890;2023-09-12T17:28:43;14.90;;;13.60;;
41141;SDS011;63666;52.284;20.890;2023-09-12T17:31:18;15.30;;;14.00;;
41141;SDS011;63666;52.284;20.890;2023-09-12T17:33:53;15.50;;;14.10;;
41141;SDS011;63666;52.284;20.890;2023-09-12T17:36:30;15.20;;;13.90;;
41141;SDS011;63666;52.284;20.890;2023-09-12T17:39:04;15.20;;;13.80;;
41141;SDS011;63666;52.284;20.890;2023-09-12T17:41:41;15.10;;;13.70;;